createdAt,value
2023-04-20T00:01:27.396Z,12.80
2023-04-20T00:03:54.425Z,11.40
2023-04-20T00:06:21.559Z,11.80
2023-04-20T00:08:48.360Z,12.80
2023-04-20T00:11:15.046Z,12.70
2023-04-20T00:13:42.139Z,12.70
2023-04-20T00:16:08.909Z,14.80
2023-04-20T00:18:35.629Z,14.90
2023-04-20T00:21:02.511Z,13.60
2023-04-20T00:23:29.215Z,13.60
2023-04-20T00:25:56.220Z,14.30
2023-04-20T00:28:23.031Z,13.70
2023-04-20T00:30:49.857Z,12.50
2023-04-20T00:33:16.645Z,12.60
2023-04-20T00:35:43.442Z,13.20
2023-04-20T00:38:10.298Z,11.60
2023-04-20T00:40:37.013Z,14.50
2023-04-20T00:43:12.082Z,15.80
2023-04-20T00:45:39.021Z,11.10
2023-04-20T00:48:06.705Z,11.90
2023-04-20T00:50:34.150Z,15.00
2023-04-20T00:53:02.637Z,13.70
2023-04-20T00:55:30.233Z,11.70
2023-04-20T00:57:57.848Z,11.70
2023-04-20T01:00:26.952Z,16.00
2023-04-20T01:02:54.195Z,13.10
2023-04-20T01:05:21.732Z,12.10
2023-04-20T01:07:49.059Z,13.50
2023-04-20T01:10:16.062Z,12.20
2023-04-20T01:12:42.907Z,12.70
2023-04-20T01:15:10.804Z,11.80
2023-04-20T01:17:39.105Z,16.60
2023-04-20T01:20:08.687Z,17.90
2023-04-20T01:22:45.903Z,17.40
2023-04-20T01:25:12.973Z,14.00
2023-04-20T01:27:39.785Z,11.80
2023-04-20T01:30:07.396Z,11.30
2023-04-20T01:32:35.370Z,12.60
2023-04-20T01:35:03.288Z,11.80
2023-04-20T01:37:30.175Z,13.00
2023-04-20T01:39:57.162Z,12.40
2023-04-20T01:42:23.987Z,13.50
2023-04-20T01:44:50.728Z,11.60
2023-04-20T01:47:18.371Z,15.90
2023-04-20T01:49:45.286Z,11.50
2023-04-20T01:52:12.121Z,11.00
2023-04-20T01:54:38.911Z,11.60
2023-04-20T01:57:05.569Z,16.00
2023-04-20T01:59:32.357Z,15.30
2023-04-20T02:02:01.810Z,23.70
2023-04-20T02:04:28.748Z,14.80
2023-04-20T02:06:55.693Z,15.50
2023-04-20T02:09:22.448Z,15.60
2023-04-20T02:11:49.603Z,11.70
2023-04-20T02:14:16.353Z,11.90
2023-04-20T02:16:43.206Z,11.30
2023-04-20T02:19:10.180Z,10.40
2023-04-20T02:21:37.437Z,10.90
2023-04-20T02:24:04.926Z,11.30
2023-04-20T02:26:31.696Z,10.40
2023-04-20T02:28:59.852Z,11.60
2023-04-20T02:31:26.777Z,12.40
2023-04-20T02:33:53.528Z,17.30
2023-04-20T02:36:20.235Z,14.00
2023-04-20T02:38:46.938Z,12.60
2023-04-20T02:41:13.682Z,14.10
2023-04-20T02:43:40.596Z,13.10
2023-04-20T02:46:07.885Z,15.20
2023-04-20T02:48:34.885Z,14.10
2023-04-20T02:51:01.616Z,12.70
2023-04-20T02:53:33.681Z,11.80
2023-04-20T02:56:14.188Z,13.80
2023-04-20T02:58:48.263Z,11.30
2023-04-20T03:01:31.943Z,11.80
2023-04-20T03:04:04.658Z,11.60
2023-04-20T03:06:32.955Z,11.30
2023-04-20T03:08:59.882Z,10.00
2023-04-20T03:11:57.371Z,9.10
2023-04-20T03:14:47.103Z,11.30
2023-04-20T03:17:14.454Z,13.30
2023-04-20T03:19:41.245Z,11.20
2023-04-20T03:22:08.017Z,12.10
2023-04-20T03:24:35.269Z,10.00
2023-04-20T03:27:07.156Z,11.20
2023-04-20T03:29:42.618Z,14.10
2023-04-20T03:32:09.660Z,11.10
2023-04-20T03:34:36.378Z,12.60
2023-04-20T03:37:03.354Z,11.50
2023-04-20T03:39:30.217Z,9.50
2023-04-20T03:41:56.988Z,11.10
2023-04-20T03:44:23.807Z,10.70
2023-04-20T03:46:50.577Z,11.50
2023-04-20T03:49:23.962Z,13.90
2023-04-20T03:51:51.394Z,13.30
2023-04-20T03:54:18.172Z,16.30
2023-04-20T03:56:45.683Z,13.00
2023-04-20T03:59:13.164Z,11.60
2023-04-20T04:01:43.668Z,11.20
2023-04-20T04:04:10.640Z,11.10
2023-04-20T04:06:37.822Z,11.60
2023-04-20T04:09:04.893Z,12.20
2023-04-20T04:11:31.677Z,11.10
2023-04-20T04:13:58.989Z,10.30
2023-04-20T04:16:26.291Z,9.60
2023-04-20T04:18:54.409Z,10.00
2023-04-20T04:21:21.211Z,10.60
2023-04-20T04:23:53.313Z,10.10
2023-04-20T04:26:34.665Z,10.30
2023-04-20T04:29:04.283Z,8.30
2023-04-20T04:31:32.309Z,8.20
2023-04-20T04:34:03.902Z,8.80
2023-04-20T04:36:37.245Z,8.40
2023-04-20T04:39:05.614Z,7.60
2023-04-20T04:41:32.668Z,7.50
2023-04-20T04:44:09.163Z,7.70
2023-04-20T04:46:36.324Z,7.20
2023-04-20T04:49:03.841Z,7.60
2023-04-20T04:51:31.176Z,7.80
2023-04-20T04:53:58.100Z,8.00
2023-04-20T04:56:25.253Z,9.70
2023-04-20T04:58:52.027Z,9.80
2023-04-20T05:01:18.846Z,8.80
2023-04-20T05:03:45.685Z,8.10
2023-04-20T05:06:12.652Z,8.50
2023-04-20T05:08:39.337Z,7.40
2023-04-20T05:11:06.049Z,8.80
2023-04-20T05:13:32.875Z,9.20
2023-04-20T05:15:59.740Z,10.30
2023-04-20T05:18:26.511Z,10.20
2023-04-20T05:20:53.925Z,9.10
2023-04-20T05:23:20.695Z,10.20
2023-04-20T05:25:47.465Z,9.80
2023-04-20T05:28:14.369Z,8.30
2023-04-20T05:30:41.196Z,10.60
2023-04-20T05:33:08.048Z,9.70
2023-04-20T05:35:35.572Z,9.90
2023-04-20T05:38:05.674Z,8.70
2023-04-20T05:40:34.929Z,9.10
2023-04-20T05:43:02.140Z,8.70
2023-04-20T05:45:28.992Z,10.10
2023-04-20T05:47:56.884Z,8.90
2023-04-20T05:50:25.045Z,10.00
2023-04-20T05:52:52.881Z,8.30
2023-04-20T05:55:22.261Z,8.60
2023-04-20T05:57:51.360Z,8.70
2023-04-20T06:00:18.491Z,10.90
2023-04-20T06:02:45.341Z,9.80
2023-04-20T06:05:12.361Z,9.40
2023-04-20T06:07:40.011Z,8.20
2023-04-20T06:10:08.058Z,7.40
2023-04-20T06:12:35.241Z,7.50
2023-04-20T06:15:04.247Z,7.20
2023-04-20T06:17:31.072Z,7.70
2023-04-20T06:19:57.829Z,7.70
2023-04-20T06:22:24.724Z,8.60
2023-04-20T06:24:51.490Z,7.80
2023-04-20T06:27:18.356Z,7.70
2023-04-20T06:29:45.013Z,8.50
2023-04-20T06:32:11.789Z,9.00
2023-04-20T06:34:38.479Z,11.00
2023-04-20T06:37:06.199Z,10.00
2023-04-20T06:39:33.081Z,8.50
2023-04-20T06:41:59.915Z,8.60
2023-04-20T06:44:27.884Z,9.20
2023-04-20T06:46:54.798Z,6.60
2023-04-20T06:49:22.005Z,8.20
2023-04-20T06:51:49.274Z,6.10
2023-04-20T06:54:17.006Z,7.40
2023-04-20T06:56:43.819Z,6.40
2023-04-20T06:59:10.562Z,7.10
2023-04-20T07:01:37.383Z,6.50
2023-04-20T07:04:04.426Z,6.30
2023-04-20T07:06:31.644Z,6.60
2023-04-20T07:08:58.660Z,5.90
2023-04-20T07:11:25.593Z,6.20
2023-04-20T07:13:52.311Z,6.10
2023-04-20T07:16:19.146Z,7.90
2023-04-20T07:18:45.926Z,7.10
2023-04-20T07:21:14.660Z,6.60
2023-04-20T07:23:44.198Z,6.20
2023-04-20T07:26:12.166Z,6.00
2023-04-20T07:28:38.946Z,6.90
2023-04-20T07:31:05.949Z,7.40
2023-04-20T07:33:35.203Z,6.40
2023-04-20T07:36:02.000Z,7.60
2023-04-20T07:38:28.743Z,6.70
2023-04-20T07:40:55.410Z,6.70
2023-04-20T07:43:22.404Z,6.60
2023-04-20T07:45:49.237Z,5.70
2023-04-20T07:48:16.223Z,6.00
2023-04-20T07:50:43.041Z,6.00
2023-04-20T07:53:09.853Z,5.30
2023-04-20T07:55:36.730Z,6.90
2023-04-20T07:58:03.707Z,5.80
2023-04-20T08:00:30.556Z,4.80
2023-04-20T08:02:57.472Z,4.40
2023-04-20T08:05:24.697Z,4.80
2023-04-20T08:07:51.724Z,5.00
2023-04-20T08:10:18.499Z,5.20
2023-04-20T08:12:46.613Z,4.60
2023-04-20T08:15:13.916Z,5.50
2023-04-20T08:17:40.767Z,5.00
2023-04-20T08:20:10.061Z,4.50
2023-04-20T08:22:38.084Z,5.40
2023-04-20T08:25:05.515Z,5.10
2023-04-20T08:27:32.481Z,5.10
2023-04-20T08:29:59.262Z,5.40
2023-04-20T08:32:26.251Z,5.60
2023-04-20T08:34:53.645Z,5.60
2023-04-20T08:37:20.686Z,4.50
2023-04-20T08:39:47.481Z,4.50
2023-04-20T08:42:16.287Z,4.40
2023-04-20T08:44:43.339Z,4.50
2023-04-20T08:47:16.432Z,11.10
2023-04-20T08:49:44.250Z,6.40
2023-04-20T08:52:11.614Z,6.70
2023-04-20T08:54:46.040Z,6.00
2023-04-20T08:57:20.460Z,8.40
2023-04-20T08:59:47.610Z,8.00
2023-04-20T09:02:15.351Z,5.40
2023-04-20T09:04:42.623Z,5.60
2023-04-20T09:07:20.949Z,3.90
2023-04-20T09:09:58.266Z,4.40
2023-04-20T09:12:25.988Z,4.20
2023-04-20T09:14:53.750Z,4.50
2023-04-20T09:17:34.871Z,4.60
2023-04-20T09:20:02.147Z,4.00
2023-04-20T09:22:31.134Z,5.10
2023-04-20T09:24:58.114Z,4.70
2023-04-20T09:27:26.397Z,4.10
2023-04-20T09:30:01.069Z,4.10
2023-04-20T09:32:28.351Z,4.90
2023-04-20T09:34:56.170Z,4.70
2023-04-20T09:37:23.032Z,4.50
2023-04-20T09:39:50.174Z,4.40
2023-04-20T09:42:17.375Z,5.30
2023-04-20T09:44:44.262Z,4.40
2023-04-20T09:47:18.461Z,4.80
2023-04-20T09:49:48.693Z,5.90
2023-04-20T09:52:18.788Z,4.30
2023-04-20T09:54:46.108Z,4.20
2023-04-20T09:57:14.107Z,4.80
2023-04-20T09:59:46.534Z,4.40
2023-04-20T10:02:14.049Z,3.50
2023-04-20T10:04:54.782Z,3.20
2023-04-20T10:07:31.208Z,4.40
2023-04-20T10:10:07.742Z,4.40
2023-04-20T10:12:53.667Z,3.90
2023-04-20T10:15:26.703Z,4.00
2023-04-20T10:17:53.641Z,3.60
2023-04-20T10:20:24.808Z,3.40
2023-04-20T10:22:52.645Z,4.80
2023-04-20T10:25:26.730Z,3.80
2023-04-20T10:27:59.439Z,3.60
2023-04-20T10:30:28.895Z,3.30
2023-04-20T10:33:10.665Z,4.00
2023-04-20T10:35:42.127Z,3.30
2023-04-20T10:38:11.152Z,4.30
2023-04-20T10:40:38.261Z,3.20
2023-04-20T10:43:17.248Z,3.60
2023-04-20T10:45:44.187Z,4.50
2023-04-20T10:48:11.442Z,3.20
2023-04-20T10:50:38.716Z,3.50
2023-04-20T10:53:06.798Z,3.20
2023-04-20T10:55:34.354Z,3.50
2023-04-20T10:58:01.174Z,3.70
2023-04-20T11:00:30.280Z,3.80
2023-04-20T11:02:57.352Z,3.20
2023-04-20T11:05:26.785Z,3.60
2023-04-20T11:07:55.773Z,3.10
2023-04-20T11:10:44.723Z,3.80
2023-04-20T11:13:21.970Z,3.20
2023-04-20T11:15:48.899Z,3.60
2023-04-20T11:18:16.184Z,3.90
2023-04-20T11:20:56.112Z,3.80
2023-04-20T11:23:26.264Z,3.90
2023-04-20T11:25:55.750Z,3.70
2023-04-20T11:28:23.212Z,4.20
2023-04-20T11:30:50.484Z,3.40
2023-04-20T11:33:28.256Z,3.00
2023-04-20T11:35:57.260Z,2.70
2023-04-20T11:38:33.306Z,3.30
2023-04-20T11:41:04.147Z,3.00
2023-04-20T11:43:31.726Z,4.20
2023-04-20T11:46:00.583Z,4.30
2023-04-20T11:48:30.897Z,3.30
2023-04-20T11:50:58.495Z,3.60
2023-04-20T11:53:25.357Z,3.50
2023-04-20T11:55:52.077Z,3.50
2023-04-20T11:58:19.153Z,3.40
2023-04-20T12:00:45.861Z,3.30
2023-04-20T12:03:12.997Z,3.30
2023-04-20T12:05:40.394Z,3.30
2023-04-20T12:08:07.777Z,3.20
2023-04-20T12:10:34.732Z,3.10
2023-04-20T12:13:01.460Z,2.50
2023-04-20T12:15:28.198Z,3.30
2023-04-20T12:17:55.204Z,3.10
2023-04-20T12:20:22.393Z,3.60
2023-04-20T12:22:49.286Z,3.50
2023-04-20T12:25:16.031Z,3.40
2023-04-20T12:27:42.817Z,5.10
2023-04-20T12:30:10.050Z,2.70
2023-04-20T12:32:36.949Z,4.20
2023-04-20T12:35:04.047Z,4.30
2023-04-20T12:37:31.726Z,3.60
2023-04-20T12:39:58.583Z,3.10
2023-04-20T12:42:25.477Z,4.30
2023-04-20T12:44:53.675Z,3.60
2023-04-20T12:47:20.437Z,3.40
2023-04-20T12:49:47.514Z,3.90
2023-04-20T12:52:14.343Z,3.50
2023-04-20T12:54:42.812Z,3.10
2023-04-20T12:57:11.353Z,3.90
2023-04-20T12:59:38.086Z,3.40
2023-04-20T13:02:05.010Z,3.60
2023-04-20T13:04:32.020Z,3.60
2023-04-20T13:06:58.846Z,3.80
2023-04-20T13:09:26.800Z,4.50
2023-04-20T13:11:53.638Z,4.90
2023-04-20T13:14:20.728Z,4.20
2023-04-20T13:16:47.872Z,4.70
2023-04-20T13:19:15.236Z,4.30
2023-04-20T13:21:42.054Z,4.70
2023-04-20T13:24:08.844Z,3.80
2023-04-20T13:26:36.201Z,4.20
2023-04-20T13:29:03.136Z,5.20
2023-04-20T13:31:31.573Z,4.00
2023-04-20T13:33:58.591Z,4.50
2023-04-20T13:36:25.664Z,4.30
2023-04-20T13:38:53.092Z,4.60
2023-04-20T13:41:20.753Z,4.60
2023-04-20T13:43:47.816Z,4.10
2023-04-20T13:46:19.598Z,4.60
2023-04-20T13:48:46.401Z,4.30
2023-04-20T13:51:13.550Z,4.90
2023-04-20T13:53:40.895Z,4.80
2023-04-20T13:56:07.840Z,7.40
2023-04-20T13:58:34.622Z,7.20
2023-04-20T14:01:11.460Z,6.90
2023-04-20T14:03:42.522Z,9.00
2023-04-20T14:06:09.756Z,8.50
2023-04-20T14:08:36.760Z,7.60
2023-04-20T14:11:03.822Z,7.30
2023-04-20T14:13:31.728Z,5.70
2023-04-20T14:15:58.689Z,5.40
2023-04-20T14:18:25.854Z,5.20
2023-04-20T14:20:52.927Z,5.30
2023-04-20T14:23:19.735Z,5.20
2023-04-20T14:25:46.473Z,5.10
2023-04-20T14:28:16.309Z,4.40
2023-04-20T14:30:45.171Z,4.70
2023-04-20T14:33:12.356Z,4.20
2023-04-20T14:35:39.167Z,5.00
2023-04-20T14:38:06.056Z,4.60
2023-04-20T14:40:32.795Z,4.20
2023-04-20T14:42:59.543Z,4.40
2023-04-20T14:45:26.481Z,4.30
2023-04-20T14:47:54.663Z,4.20
2023-04-20T14:50:28.028Z,4.40
2023-04-20T14:52:55.754Z,4.80
2023-04-20T14:55:25.382Z,4.30
2023-04-20T14:57:54.988Z,4.50
2023-04-20T15:00:27.875Z,4.60
2023-04-20T15:02:58.662Z,4.70
2023-04-20T15:05:26.907Z,4.60
2023-04-20T15:07:53.716Z,4.80
2023-04-20T15:10:20.909Z,4.80
2023-04-20T15:12:47.721Z,5.20
2023-04-20T15:15:15.305Z,4.80
2023-04-20T15:17:42.239Z,4.80
2023-04-20T15:20:09.503Z,3.60
2023-04-20T15:22:36.967Z,3.70
2023-04-20T15:25:04.350Z,4.10
2023-04-20T15:27:31.117Z,3.70
2023-04-20T15:29:58.262Z,4.20
2023-04-20T15:32:26.135Z,3.90
2023-04-20T15:34:56.147Z,4.30
2023-04-20T15:37:24.780Z,3.80
2023-04-20T15:39:52.049Z,4.20
2023-04-20T15:42:18.905Z,3.90
2023-04-20T15:44:45.935Z,3.70
2023-04-20T15:47:12.817Z,4.50
2023-04-20T15:49:40.324Z,4.80
2023-04-20T15:52:10.666Z,6.60
2023-04-20T15:54:37.760Z,5.80
2023-04-20T15:57:04.810Z,5.40
2023-04-20T15:59:31.845Z,5.10
2023-04-20T16:01:59.016Z,4.70
2023-04-20T16:04:26.391Z,6.10
2023-04-20T16:06:53.276Z,5.90
2023-04-20T16:09:20.773Z,6.40
2023-04-20T16:11:49.102Z,6.00
2023-04-20T16:14:16.471Z,5.00
2023-04-20T16:16:43.552Z,5.70
2023-04-20T16:19:12.771Z,7.30
2023-04-20T16:21:39.770Z,7.90
2023-04-20T16:24:06.901Z,15.30
2023-04-20T16:26:33.590Z,13.20
2023-04-20T16:29:00.787Z,24.50
2023-04-20T16:31:28.922Z,15.10
2023-04-20T16:33:56.701Z,8.50
2023-04-20T16:36:23.899Z,17.00
2023-04-20T16:38:50.665Z,10.40
2023-04-20T16:41:17.452Z,6.30
2023-04-20T16:43:44.292Z,9.30
2023-04-20T16:46:12.794Z,6.80
2023-04-20T16:48:39.776Z,6.40
2023-04-20T16:51:06.875Z,14.10
2023-04-20T16:53:34.456Z,13.80
2023-04-20T16:56:01.272Z,11.80
2023-04-20T16:58:28.048Z,10.80
2023-04-20T17:00:54.902Z,7.50
2023-04-20T17:03:22.145Z,10.70
2023-04-20T17:05:49.208Z,16.40
2023-04-20T17:08:16.061Z,6.90
2023-04-20T17:10:42.945Z,10.30
2023-04-20T17:13:09.956Z,9.30
2023-04-20T17:15:36.963Z,10.70
2023-04-20T17:18:04.066Z,8.20
2023-04-20T17:20:31.002Z,5.20
2023-04-20T17:22:57.805Z,6.50
2023-04-20T17:25:24.661Z,4.70
2023-04-20T17:27:51.438Z,5.10
2023-04-20T17:30:18.346Z,5.50
2023-04-20T17:32:45.817Z,4.70
2023-04-20T17:35:12.586Z,4.70
2023-04-20T17:37:39.408Z,4.60
2023-04-20T17:40:07.181Z,4.00
2023-04-20T17:42:33.969Z,3.60
2023-04-20T17:45:00.734Z,6.00
2023-04-20T17:47:27.987Z,4.00
2023-04-20T17:49:55.812Z,3.20
2023-04-20T17:52:24.591Z,4.60
2023-04-20T17:54:55.406Z,4.20
2023-04-20T17:57:22.158Z,3.80
2023-04-20T17:59:50.216Z,3.70
2023-04-20T18:02:17.596Z,2.60
2023-04-20T18:04:44.771Z,3.70
2023-04-20T18:07:13.152Z,5.50
2023-04-20T18:09:40.138Z,3.30
2023-04-20T18:12:13.096Z,4.00
2023-04-20T18:14:43.636Z,5.20
2023-04-20T18:17:11.150Z,4.30
2023-04-20T18:19:37.933Z,3.70
2023-04-20T18:22:05.024Z,3.60
2023-04-20T18:24:31.980Z,3.70
2023-04-20T18:26:58.688Z,6.00
2023-04-20T18:29:25.696Z,4.40
2023-04-20T18:31:54.591Z,3.80
2023-04-20T18:34:21.635Z,3.70
2023-04-20T18:36:48.408Z,5.50
2023-04-20T18:39:15.791Z,3.70
2023-04-20T18:41:45.024Z,3.20
2023-04-20T18:44:12.240Z,3.10
2023-04-20T18:46:39.246Z,3.50
2023-04-20T18:49:06.095Z,2.90
2023-04-20T18:51:33.841Z,3.00
2023-04-20T18:54:00.674Z,3.90
2023-04-20T18:56:27.465Z,3.20
2023-04-20T18:58:57.325Z,2.70
2023-04-20T19:01:24.307Z,2.90
2023-04-20T19:03:51.626Z,3.40
2023-04-20T19:06:18.554Z,2.90
2023-04-20T19:08:45.348Z,2.50
2023-04-20T19:11:12.365Z,3.40
2023-04-20T19:13:43.887Z,2.60
2023-04-20T19:16:12.239Z,3.40
2023-04-20T19:18:39.451Z,3.60
2023-04-20T19:21:06.535Z,3.50
2023-04-20T19:23:35.185Z,5.40
2023-04-20T19:26:02.314Z,4.50
2023-04-20T19:28:30.204Z,3.90
2023-04-20T19:30:58.260Z,3.90
2023-04-20T19:33:25.124Z,3.90
2023-04-20T19:35:52.174Z,3.80
2023-04-20T19:38:25.801Z,3.80
2023-04-20T19:40:52.562Z,3.50
2023-04-20T19:43:19.343Z,4.50
2023-04-20T19:45:46.234Z,4.60
2023-04-20T19:48:13.213Z,9.60
2023-04-20T19:50:40.211Z,30.30
2023-04-20T19:53:07.296Z,13.40
2023-04-20T19:55:37.248Z,12.60
2023-04-20T19:58:09.872Z,8.00
2023-04-20T20:00:38.315Z,6.00
2023-04-20T20:03:07.273Z,6.70
2023-04-20T20:05:34.580Z,7.40
2023-04-20T20:08:01.253Z,6.70
2023-04-20T20:10:28.145Z,9.50
2023-04-20T20:12:55.285Z,5.80
2023-04-20T20:15:22.091Z,6.00
2023-04-20T20:17:49.087Z,6.80
2023-04-20T20:20:15.849Z,5.10
2023-04-20T20:22:47.744Z,5.40
2023-04-20T20:25:15.285Z,3.60
2023-04-20T20:27:42.007Z,3.10
2023-04-20T20:30:09.744Z,6.60
2023-04-20T20:32:36.618Z,3.80
2023-04-20T20:35:04.535Z,3.50
2023-04-20T20:37:34.167Z,3.80
2023-04-20T20:40:05.273Z,3.30
2023-04-20T20:42:33.188Z,4.20
2023-04-20T20:45:00.386Z,4.40
2023-04-20T20:47:27.156Z,5.20
2023-04-20T20:49:53.872Z,6.30
2023-04-20T20:52:20.572Z,4.00
2023-04-20T20:54:47.353Z,4.30
2023-04-20T20:57:14.453Z,5.90
2023-04-20T20:59:41.234Z,4.70
2023-04-20T21:02:08.256Z,5.40
2023-04-20T21:04:36.165Z,6.10
2023-04-20T21:07:02.974Z,3.90
2023-04-20T21:09:29.722Z,7.70
2023-04-20T21:11:57.226Z,5.00
2023-04-20T21:14:23.966Z,5.80
2023-04-20T21:16:50.822Z,5.40
2023-04-20T21:19:17.753Z,5.30
2023-04-20T21:21:44.627Z,5.10
2023-04-20T21:24:11.408Z,7.60
2023-04-20T21:26:38.157Z,4.90
2023-04-20T21:29:05.832Z,5.30
2023-04-20T21:31:33.054Z,8.00
2023-04-20T21:34:00.016Z,7.20
2023-04-20T21:36:27.376Z,6.40
2023-04-20T21:38:54.283Z,4.20
2023-04-20T21:41:21.373Z,7.30
2023-04-20T21:43:48.078Z,5.00
2023-04-20T21:46:15.272Z,4.90
2023-04-20T21:48:42.131Z,5.40
2023-04-20T21:51:14.413Z,5.30
2023-04-20T21:53:41.327Z,6.20
2023-04-20T21:56:08.249Z,6.90
2023-04-20T21:58:35.282Z,6.70
2023-04-20T22:01:02.484Z,4.90
2023-04-20T22:03:30.847Z,5.20
2023-04-20T22:05:58.690Z,5.30
2023-04-20T22:08:25.419Z,5.10
2023-04-20T22:10:52.348Z,5.30
2023-04-20T22:13:19.355Z,6.10
2023-04-20T22:15:46.845Z,5.20
2023-04-20T22:18:13.573Z,5.80
2023-04-20T22:20:40.322Z,5.50
2023-04-20T22:23:07.030Z,5.40
2023-04-20T22:25:33.799Z,5.90
2023-04-20T22:28:00.516Z,5.00
2023-04-20T22:30:27.288Z,5.90
2023-04-20T22:32:54.007Z,4.30
2023-04-20T22:35:20.912Z,3.90
2023-04-20T22:37:47.747Z,4.80
2023-04-20T22:40:14.514Z,5.70
2023-04-20T22:42:41.377Z,6.80
2023-04-20T22:45:11.491Z,8.50
2023-04-20T22:47:38.765Z,5.80
2023-04-20T22:50:09.061Z,5.10
2023-04-20T22:52:38.048Z,5.60
2023-04-20T22:55:06.432Z,4.70
2023-04-20T22:57:33.204Z,4.40
2023-04-20T23:00:05.574Z,5.60
2023-04-20T23:02:32.376Z,4.40
2023-04-20T23:04:59.293Z,5.70
2023-04-20T23:07:27.066Z,4.60
2023-04-20T23:09:55.960Z,4.40
2023-04-20T23:12:23.320Z,4.20
2023-04-20T23:14:50.283Z,4.40
2023-04-20T23:17:16.990Z,3.20
2023-04-20T23:19:43.777Z,5.80
2023-04-20T23:22:10.565Z,5.10
2023-04-20T23:24:37.344Z,6.30
2023-04-20T23:27:04.480Z,5.60
2023-04-20T23:29:32.593Z,5.00
2023-04-20T23:32:00.355Z,6.30
2023-04-20T23:34:27.462Z,5.30
2023-04-20T23:36:54.323Z,3.90
2023-04-20T23:39:21.302Z,5.00
2023-04-20T23:41:48.327Z,4.20
2023-04-20T23:44:15.113Z,4.60
2023-04-20T23:46:41.901Z,3.40
2023-04-20T23:49:08.946Z,4.20
2023-04-20T23:51:35.798Z,6.60
2023-04-20T23:54:03.007Z,6.70
2023-04-20T23:56:29.893Z,5.10
2023-04-20T23:58:58.800Z,5.10
